Time;durP1;ratioP1;P1;durP2;ratioP2;P2;SDS_P1;SDS_P2;PMS_P1;PMS_P2;Temp;Humidity;BMP_temperature;BMP_pressure;BME280_temperature;BME280_humidity;BME280_pressure;Samples;Min_cycle;Max_cycle;Signal;HPM_P1;HPM_P2
2023/11/30 00:02:02;;;;;;;34.27;14.17;;;1.40;99.90;;;;;;4934056;29;20298;-64
2023/11/30 00:04:27;;;;;;;33.93;14.43;;;1.40;99.90;;;;;;4934492;29;20205;-63
2023/11/30 00:06:53;;;;;;;35.00;15.77;;;1.40;99.90;;;;;;4934474;29;20239;-64
2023/11/30 00:09:18;;;;;;;52.33;18.10;;;1.40;99.90;;;;;;4933740;29;20190;-63
2023/11/30 00:11:44;;;;;;;37.77;16.97;;;1.30;99.90;;;;;;4934245;29;20282;-63
2023/11/30 00:14:10;;;;;;;42.43;17.27;;;1.30;99.90;;;;;;4934239;29;20238;-63
2023/11/30 00:16:35;;;;;;;39.27;16.37;;;1.30;99.90;;;;;;4934348;29;20211;-64
2023/11/30 00:19:01;;;;;;;32.27;14.87;;;1.30;99.90;;;;;;4933995;29;20250;-64
2023/11/30 00:21:26;;;;;;;41.23;14.63;;;1.30;99.90;;;;;;4933730;29;20239;-63
2023/11/30 00:23:52;;;;;;;33.40;15.00;;;1.20;99.90;;;;;;4934122;29;20672;-63
2023/11/30 00:26:17;;;;;;;30.67;12.83;;;1.20;99.90;;;;;;4934046;29;20683;-63
2023/11/30 00:28:43;;;;;;;46.47;13.43;;;1.20;99.90;;;;;;4934051;29;20680;-63
2023/11/30 00:31:09;;;;;;;26.03;12.03;;;1.20;99.90;;;;;;4933077;29;20226;-63
2023/11/30 00:33:34;;;;;;;29.00;13.73;;;1.10;99.90;;;;;;4933923;29;20199;-63
2023/11/30 00:36:00;;;;;;;31.63;13.90;;;1.20;99.90;;;;;;4933728;29;20179;-63
2023/11/30 00:38:25;;;;;;;27.53;13.03;;;1.20;99.90;;;;;;4933940;29;20187;-63
2023/11/30 00:40:51;;;;;;;25.77;12.17;;;1.20;99.90;;;;;;4933160;29;20693;-63
2023/11/30 00:43:17;;;;;;;30.93;13.27;;;1.20;99.90;;;;;;4933651;29;20691;-63
2023/11/30 00:45:43;;;;;;;35.67;12.57;;;1.20;99.90;;;;;;4933788;29;20183;-62
2023/11/30 00:48:09;;;;;;;27.43;11.97;;;1.20;99.90;;;;;;4933578;29;20189;-63
2023/11/30 00:50:34;;;;;;;66.60;13.93;;;1.10;99.90;;;;;;4933228;29;20203;-63
2023/11/30 00:53:00;;;;;;;33.13;13.17;;;1.10;99.90;;;;;;4933604;29;20206;-63
2023/11/30 00:55:26;;;;;;;29.30;13.30;;;1.10;99.90;;;;;;4933670;29;20195;-63
2023/11/30 00:57:51;;;;;;;37.80;13.57;;;1.00;99.90;;;;;;4933762;29;20236;-63
2023/11/30 01:00:17;;;;;;;33.43;13.37;;;1.00;99.90;;;;;;4932666;29;20191;-63
2023/11/30 01:02:43;;;;;;;81.77;14.53;;;0.90;99.90;;;;;;4933354;29;20211;-63
2023/11/30 01:05:08;;;;;;;30.20;11.97;;;0.90;99.90;;;;;;4933333;29;20187;-63
2023/11/30 01:07:35;;;;;;;30.67;12.13;;;0.90;99.90;;;;;;4933555;29;20258;-63
2023/11/30 01:10:01;;;;;;;90.03;14.10;;;0.90;99.90;;;;;;4932597;29;20541;-63
2023/11/30 01:12:26;;;;;;;28.83;10.80;;;0.90;99.90;;;;;;4933428;29;20179;-63
2023/11/30 01:14:53;;;;;;;28.23;11.43;;;0.80;99.90;;;;;;4933278;29;20556;-63
2023/11/30 01:17:19;;;;;;;65.37;14.30;;;0.80;99.90;;;;;;4933002;29;20222;-64
2023/11/30 01:19:44;;;;;;;40.90;12.03;;;0.80;99.90;;;;;;4932800;29;20221;-63
2023/11/30 01:22:10;;;;;;;28.23;11.93;;;0.80;99.90;;;;;;4932985;29;20226;-64
2023/11/30 01:24:36;;;;;;;40.03;12.07;;;0.80;99.90;;;;;;4933475;29;20207;-62
2023/11/30 01:27:02;;;;;;;57.20;12.33;;;0.80;99.90;;;;;;4933133;29;20555;-63
2023/11/30 01:29:27;;;;;;;120.30;14.43;;;0.80;99.90;;;;;;4932641;29;20219;-63
2023/11/30 01:31:53;;;;;;;79.30;13.37;;;0.80;99.90;;;;;;4932867;29;20218;-63
2023/11/30 01:34:18;;;;;;;48.57;11.13;;;0.80;99.90;;;;;;4933046;29;20191;-63
2023/11/30 01:36:44;;;;;;;128.27;12.87;;;0.70;99.90;;;;;;4933135;29;20191;-63
2023/11/30 01:39:10;;;;;;;26.53;10.07;;;0.70;99.90;;;;;;4932791;29;20317;-64
2023/11/30 01:41:38;;;;;;;71.17;11.67;;;0.70;99.90;;;;;;4932674;29;20206;-63
2023/11/30 01:44:04;;;;;;;31.80;10.63;;;0.60;99.90;;;;;;4932792;29;20203;-63
2023/11/30 01:46:31;;;;;;;106.53;12.57;;;0.60;99.90;;;;;;4933132;29;20545;-63
2023/11/30 01:48:57;;;;;;;26.90;9.90;;;0.60;99.90;;;;;;4949283;28;20633;-63
2023/11/30 01:51:24;;;;;;;93.87;12.90;;;0.60;99.90;;;;;;4936086;29;20247;-64
2023/11/30 01:53:50;;;;;;;50.37;10.50;;;0.60;99.90;;;;;;4937030;29;20315;-63
2023/11/30 01:56:16;;;;;;;69.60;11.87;;;0.40;99.90;;;;;;4936902;29;20266;-63
2023/11/30 01:58:42;;;;;;;28.20;10.60;;;0.40;99.90;;;;;;4936852;29;20262;-63
2023/11/30 02:01:09;;;;;;;33.87;10.47;;;0.30;99.90;;;;;;4935964;29;20764;-63
2023/11/30 02:03:35;;;;;;;26.43;9.50;;;0.40;99.90;;;;;;4951374;29;20203;-64
2023/11/30 02:06:01;;;;;;;24.27;8.90;;;0.40;99.90;;;;;;4936598;29;20295;-64
2023/11/30 02:08:26;;;;;;;19.73;7.90;;;0.40;99.90;;;;;;4936858;29;20743;-63
2023/11/30 02:10:53;;;;;;;20.00;8.97;;;0.40;99.90;;;;;;4935972;29;20206;-64
2023/11/30 02:13:18;;;;;;;23.30;9.27;;;0.40;99.90;;;;;;4936391;29;20237;-63
2023/11/30 02:15:44;;;;;;;19.03;8.30;;;0.40;99.90;;;;;;4936526;29;20273;-63
2023/11/30 02:18:09;;;;;;;23.30;9.50;;;0.30;99.90;;;;;;4936454;29;20187;-63
2023/11/30 02:20:35;;;;;;;26.77;9.87;;;0.40;99.90;;;;;;4935896;29;20195;-63
2023/11/30 02:23:01;;;;;;;30.37;9.87;;;0.40;99.90;;;;;;4936462;29;20278;-63
2023/11/30 02:25:26;;;;;;;33.27;9.70;;;0.30;99.90;;;;;;4928625;29;20186;-63
2023/11/30 02:27:52;;;;;;;28.80;9.73;;;0.20;99.90;;;;;;4936728;29;20183;-62
2023/11/30 02:30:17;;;;;;;22.57;9.43;;;0.20;99.90;;;;;;4935268;29;20195;-63
2023/11/30 02:32:43;;;;;;;23.63;9.77;;;0.20;99.90;;;;;;4935814;29;20187;-63
2023/11/30 02:35:09;;;;;;;29.33;9.83;;;0.20;99.90;;;;;;4936101;29;20219;-64
2023/11/30 02:37:34;;;;;;;22.73;9.97;;;0.10;99.90;;;;;;4936210;29;20532;-63
2023/11/30 02:40:00;;;;;;;27.47;10.37;;;0.10;99.90;;;;;;4935481;29;20191;-63
2023/11/30 02:42:25;;;;;;;31.87;11.23;;;0.10;99.90;;;;;;4935824;29;20222;-63
2023/11/30 02:44:51;;;;;;;28.03;11.10;;;0.10;99.90;;;;;;4935947;29;20199;-63
2023/11/30 02:47:16;;;;;;;29.27;10.87;;;0.10;99.90;;;;;;4935716;29;20187;-64
2023/11/30 02:49:42;;;;;;;27.13;10.77;;;0.10;99.90;;;;;;4935420;29;20187;-63
2023/11/30 02:52:07;;;;;;;25.97;10.97;;;0.10;99.90;;;;;;4935612;29;20290;-64
2023/11/30 02:54:33;;;;;;;29.67;11.30;;;0.10;99.90;;;;;;4935003;29;20183;-64
2023/11/30 02:56:58;;;;;;;28.60;10.87;;;0.10;99.90;;;;;;4935669;29;20183;-64
2023/11/30 02:59:24;;;;;;;31.10;11.63;;;0.00;99.90;;;;;;4934819;29;20275;-64
2023/11/30 03:01:50;;;;;;;25.37;10.30;;;0.00;99.90;;;;;;4935684;29;20326;-63
2023/11/30 03:04:16;;;;;;;28.40;10.83;;;0.00;99.90;;;;;;4935532;29;20235;-62
2023/11/30 03:06:42;;;;;;;27.87;11.63;;;-0.10;99.90;;;;;;4935737;29;20267;-62
2023/11/30 03:09:08;;;;;;;25.23;10.60;;;-0.20;99.90;;;;;;4950107;29;20641;-62
2023/11/30 03:11:34;;;;;;;28.10;11.50;;;-0.10;99.90;;;;;;4934908;29;20191;-63
2023/11/30 03:14:00;;;;;;;29.97;11.53;;;0.00;99.90;;;;;;4935327;29;20660;-63
2023/11/30 03:16:27;;;;;;;32.50;12.37;;;0.00;99.90;;;;;;4935506;29;20199;-63
2023/11/30 03:18:54;;;;;;;31.00;11.47;;;0.10;99.90;;;;;;4935225;29;20216;-63
2023/11/30 03:21:20;;;;;;;30.87;11.73;;;0.10;99.90;;;;;;4934525;29;20282;-62
2023/11/30 03:23:46;;;;;;;32.43;12.33;;;0.20;99.90;;;;;;4935214;29;20207;-63
2023/11/30 03:26:18;;;;;;;31.80;11.50;;;0.20;99.90;;;;;;4935119;29;20313;-62
2023/11/30 03:28:44;;;;;;;26.50;11.07;;;0.20;99.90;;;;;;4935641;29;20286;-63
2023/11/30 03:31:10;;;;;;;30.30;11.93;;;0.20;99.90;;;;;;4934188;29;20215;-63
2023/11/30 03:33:35;;;;;;;27.57;10.67;;;0.20;99.90;;;;;;4935141;29;20266;-63
2023/11/30 03:36:01;;;;;;;29.87;11.70;;;0.30;99.90;;;;;;4935092;29;20183;-64
2023/11/30 03:38:27;;;;;;;30.23;11.93;;;0.30;99.90;;;;;;4935031;29;20183;-63
2023/11/30 03:40:52;;;;;;;33.40;12.40;;;0.30;99.90;;;;;;4934229;29;20250;-63
2023/11/30 03:43:18;;;;;;;30.50;11.43;;;0.30;99.90;;;;;;4934957;29;20704;-62
2023/11/30 03:45:43;;;;;;;30.17;10.40;;;0.30;99.90;;;;;;4933688;29;20703;-63
2023/11/30 03:48:09;;;;;;;32.40;11.87;;;0.30;99.90;;;;;;4934565;29;20191;-63
2023/11/30 03:50:34;;;;;;;29.37;10.77;;;0.30;99.90;;;;;;4934216;29;20687;-64
2023/11/30 03:53:00;;;;;;;24.10;10.07;;;0.30;99.90;;;;;;4934951;29;20559;-64
2023/11/30 03:55:26;;;;;;;25.77;10.70;;;0.30;99.90;;;;;;4934636;29;20585;-63
2023/11/30 03:57:52;;;;;;;26.43;9.93;;;0.30;99.90;;;;;;4935172;29;20175;-63
2023/11/30 04:00:18;;;;;;;29.60;10.53;;;0.30;99.90;;;;;;4933813;29;20245;-63
2023/11/30 04:02:43;;;;;;;26.40;10.07;;;0.30;99.90;;;;;;4934501;29;20207;-63
2023/11/30 04:05:15;;;;;;;27.17;10.53;;;0.30;99.90;;;;;;4934394;29;20239;-63
2023/11/30 04:07:43;;;;;;;28.00;10.63;;;0.30;99.90;;;;;;4934545;29;20231;-63
2023/11/30 04:10:11;;;;;;;27.03;10.03;;;0.20;99.90;;;;;;4933597;29;20266;-62
2023/11/30 04:12:36;;;;;;;25.60;9.93;;;0.30;99.90;;;;;;4934194;29;20210;-63
2023/11/30 04:15:04;;;;;;;30.30;10.70;;;0.30;99.90;;;;;;4934370;29;20239;-63
2023/11/30 04:17:30;;;;;;;30.03;10.43;;;0.30;99.90;;;;;;4934327;29;20195;-62
2023/11/30 04:19:55;;;;;;;27.53;10.20;;;0.30;99.90;;;;;;4933709;29;20186;-62
2023/11/30 04:22:21;;;;;;;26.07;10.27;;;0.20;99.90;;;;;;4933989;29;20211;-63
2023/11/30 04:24:47;;;;;;;27.77;10.43;;;0.20;99.90;;;;;;4934222;29;20187;-64
2023/11/30 04:27:12;;;;;;;29.40;10.80;;;0.30;99.90;;;;;;4934037;29;20617;-64
2023/11/30 04:29:38;;;;;;;25.60;10.70;;;0.30;99.90;;;;;;4933660;29;20187;-63
2023/11/30 04:32:04;;;;;;;29.60;10.87;;;0.30;99.90;;;;;;4932551;29;20218;-64
2023/11/30 04:34:29;;;;;;;30.03;11.63;;;0.30;99.90;;;;;;4934094;29;20187;-63
2023/11/30 04:36:55;;;;;;;30.83;11.63;;;0.30;99.90;;;;;;4933946;29;20194;-64
2023/11/30 04:39:20;;;;;;;32.50;11.70;;;0.30;99.90;;;;;;4931893;29;20215;-63
2023/11/30 04:41:47;;;;;;;35.97;11.03;;;0.30;99.90;;;;;;4933811;29;20234;-63
2023/11/30 04:44:13;;;;;;;25.43;10.27;;;0.20;99.90;;;;;;4933873;29;20703;-63
2023/11/30 04:46:39;;;;;;;31.77;12.57;;;0.20;99.90;;;;;;4933935;29;20221;-63
2023/11/30 04:49:05;;;;;;;33.13;12.67;;;0.20;99.90;;;;;;4933559;29;20207;-64
2023/11/30 04:51:30;;;;;;;36.53;11.60;;;0.30;99.90;;;;;;4933081;29;20207;-64
2023/11/30 04:53:56;;;;;;;33.73;11.43;;;0.30;99.90;;;;;;4933724;29;20211;-63
2023/11/30 04:56:22;;;;;;;34.07;11.17;;;0.40;99.90;;;;;;4933516;29;20187;-64
2023/11/30 04:58:48;;;;;;;33.93;11.30;;;0.40;99.90;;;;;;4933718;29;20183;-63
2023/11/30 05:01:13;;;;;;;29.33;10.60;;;0.40;99.90;;;;;;4932699;29;20207;-63
2023/11/30 05:03:39;;;;;;;26.37;10.33;;;0.50;99.90;;;;;;4933489;29;20258;-64
2023/11/30 05:06:05;;;;;;;35.83;11.63;;;0.40;99.90;;;;;;4933503;29;20190;-64
2023/11/30 05:08:30;;;;;;;36.33;10.67;;;0.40;99.90;;;;;;4933500;29;20285;-64
2023/11/30 05:10:57;;;;;;;32.37;12.07;;;0.40;99.90;;;;;;4932888;29;20207;-64
2023/11/30 05:13:22;;;;;;;29.30;10.93;;;0.40;99.90;;;;;;4933293;29;20187;-64
2023/11/30 05:15:48;;;;;;;33.80;11.80;;;0.50;99.90;;;;;;4932335;29;20194;-64
2023/11/30 05:18:13;;;;;;;34.50;12.20;;;0.50;99.90;;;;;;4933092;29;20276;-65
2023/11/30 05:20:40;;;;;;;35.73;12.13;;;0.50;99.90;;;;;;4932696;29;20203;-64
2023/11/30 05:23:05;;;;;;;34.17;11.60;;;0.60;99.90;;;;;;4932185;29;20207;-64
2023/11/30 05:25:32;;;;;;;32.97;12.20;;;0.60;99.90;;;;;;4933473;29;20191;-64
2023/11/30 05:27:58;;;;;;;37.13;12.30;;;0.60;99.90;;;;;;4933416;29;20203;-64
2023/11/30 05:30:24;;;;;;;35.87;11.57;;;0.60;99.90;;;;;;4932242;29;20203;-63
2023/11/30 05:32:50;;;;;;;31.87;11.70;;;0.60;99.90;;;;;;4933134;29;20641;-64
2023/11/30 05:35:16;;;;;;;37.40;11.60;;;0.70;99.90;;;;;;4933020;29;20267;-63
2023/11/30 05:37:42;;;;;;;33.47;12.03;;;0.70;99.90;;;;;;4933132;29;20175;-63
2023/11/30 05:40:08;;;;;;;35.53;11.77;;;0.80;99.90;;;;;;4932468;29;20194;-64
2023/11/30 05:42:34;;;;;;;28.97;10.83;;;0.70;99.90;;;;;;4933351;29;20214;-65
2023/11/30 05:44:59;;;;;;;30.40;11.57;;;0.70;99.90;;;;;;4933199;29;20187;-64
2023/11/30 05:47:25;;;;;;;29.20;10.80;;;0.70;99.90;;;;;;4932929;29;20186;-64
2023/11/30 05:49:51;;;;;;;32.33;10.80;;;0.80;99.90;;;;;;4932624;29;20183;-64
2023/11/30 05:52:17;;;;;;;25.57;10.13;;;0.80;99.90;;;;;;4932851;29;20234;-66
2023/11/30 05:54:42;;;;;;;26.80;10.83;;;0.80;99.90;;;;;;4932191;29;20218;-65
2023/11/30 05:57:08;;;;;;;32.17;11.53;;;0.80;99.90;;;;;;4933365;29;20263;-65
2023/11/30 05:59:33;;;;;;;31.17;10.73;;;0.90;99.90;;;;;;4932656;29;20234;-64
2023/11/30 06:02:01;;;;;;;30.83;11.50;;;0.90;99.90;;;;;;4933370;29;20215;-65
2023/11/30 06:04:28;;;;;;;37.83;12.50;;;0.90;99.90;;;;;;4933202;29;20210;-65
2023/11/30 06:06:54;;;;;;;36.40;12.90;;;0.90;99.90;;;;;;4933493;29;20179;-65
2023/11/30 06:09:20;;;;;;;31.87;12.93;;;0.90;99.90;;;;;;4932207;29;20198;-64
2023/11/30 06:11:45;;;;;;;34.93;12.97;;;0.80;99.90;;;;;;4932756;29;20674;-64
2023/11/30 06:14:11;;;;;;;37.13;11.80;;;0.90;99.90;;;;;;4932792;29;20266;-64
2023/11/30 06:16:37;;;;;;;32.27;12.50;;;0.90;99.90;;;;;;4932932;29;20187;-65
2023/11/30 06:19:02;;;;;;;28.77;11.37;;;0.80;99.90;;;;;;4932681;29;20190;-65
2023/11/30 06:21:28;;;;;;;36.23;12.90;;;0.80;99.90;;;;;;4931930;29;20231;-65
2023/11/30 06:23:53;;;;;;;31.30;12.20;;;0.80;99.90;;;;;;4932588;29;20578;-64
2023/11/30 06:26:19;;;;;;;33.67;12.83;;;0.90;99.90;;;;;;4932518;29;20567;-65
2023/11/30 06:28:44;;;;;;;35.37;12.63;;;0.80;99.90;;;;;;4932811;29;20179;-64
2023/11/30 06:31:13;;;;;;;31.63;11.40;;;0.80;99.90;;;;;;4931776;29;20274;-64
2023/11/30 06:33:39;;;;;;;36.30;12.87;;;0.80;99.90;;;;;;4932642;29;20187;-65
2023/11/30 06:36:05;;;;;;;35.47;12.30;;;0.90;99.90;;;;;;4935563;29;20198;-64
2023/11/30 06:38:31;;;;;;;31.97;12.23;;;0.80;99.90;;;;;;4936115;29;20187;-64
2023/11/30 06:40:56;;;;;;;34.17;12.43;;;0.80;99.90;;;;;;4935543;29;20213;-65
2023/11/30 06:43:22;;;;;;;35.10;13.33;;;0.90;99.90;;;;;;4935957;29;20222;-65
2023/11/30 06:45:48;;;;;;;35.37;12.47;;;0.90;99.90;;;;;;4936177;29;20179;-64
2023/11/30 06:48:13;;;;;;;33.23;12.37;;;0.90;99.90;;;;;;4935759;29;20183;-64
2023/11/30 06:50:39;;;;;;;34.73;13.13;;;0.90;99.90;;;;;;4935155;29;20294;-65
2023/11/30 06:53:04;;;;;;;30.40;12.27;;;0.80;99.90;;;;;;4935815;29;20183;-63
2023/11/30 06:55:30;;;;;;;32.63;11.83;;;0.80;99.90;;;;;;4935605;29;20202;-65
2023/11/30 06:57:55;;;;;;;33.87;12.83;;;0.80;99.90;;;;;;4935275;29;20295;-64
2023/11/30 07:00:21;;;;;;;38.40;13.77;;;0.80;99.90;;;;;;4934518;29;20183;-65
2023/11/30 07:02:47;;;;;;;37.80;14.23;;;0.80;99.90;;;;;;4935381;29;20211;-65
2023/11/30 07:05:13;;;;;;;33.77;14.03;;;0.70;99.90;;;;;;4943352;29;20182;-65
2023/11/30 07:07:39;;;;;;;31.30;12.20;;;0.80;99.90;;;;;;4937382;28;20180;-65
2023/11/30 07:10:05;;;;;;;30.60;11.53;;;0.80;99.90;;;;;;4934282;29;20179;-64
2023/11/30 07:12:31;;;;;;;35.90;13.30;;;0.80;99.90;;;;;;4935613;29;20186;-64
2023/11/30 07:14:56;;;;;;;37.50;13.93;;;0.70;99.90;;;;;;4935566;29;20176;-65
2023/11/30 07:17:23;;;;;;;41.20;15.20;;;0.70;99.90;;;;;;4934147;29;20562;-65
2023/11/30 07:19:50;;;;;;;38.23;14.63;;;0.60;99.90;;;;;;4934678;29;20182;-65
2023/11/30 07:22:15;;;;;;;38.77;13.20;;;0.60;99.90;;;;;;4935021;29;20203;-65
2023/11/30 07:24:45;;;;;;;32.43;13.37;;;0.70;99.90;;;;;;4940367;29;20182;-64
2023/11/30 07:27:10;;;;;;;34.67;13.73;;;0.80;99.90;;;;;;4946023;29;20195;-64
2023/11/30 07:29:37;;;;;;;39.00;13.57;;;0.80;99.90;;;;;;4936974;28;20246;-64
2023/11/30 07:32:03;;;;;;;36.60;13.20;;;0.80;99.90;;;;;;4934659;29;20918;-64
2023/11/30 07:34:29;;;;;;;31.37;12.43;;;0.80;99.90;;;;;;4934948;29;20296;-65
2023/11/30 07:36:54;;;;;;;30.73;13.23;;;0.80;99.90;;;;;;4935159;29;20199;-65
2023/11/30 07:39:20;;;;;;;32.93;12.80;;;0.80;99.90;;;;;;4934542;29;20191;-65
2023/11/30 07:41:48;;;;;;;50.13;16.90;;;0.80;99.90;;;;;;4934926;29;20222;-64
2023/11/30 07:44:13;;;;;;;47.30;17.33;;;0.80;99.90;;;;;;4934809;29;20241;-64
2023/11/30 07:46:39;;;;;;;40.37;15.20;;;0.80;99.90;;;;;;4934041;29;20179;-65
2023/11/30 07:49:05;;;;;;;34.47;14.87;;;0.80;99.90;;;;;;4934628;29;20188;-64
2023/11/30 07:51:31;;;;;;;42.57;14.27;;;0.90;99.90;;;;;;4934204;29;20584;-65
2023/11/30 07:53:56;;;;;;;35.07;13.77;;;0.90;99.90;;;;;;4934805;29;20554;-65
2023/11/30 07:56:22;;;;;;;40.17;14.17;;;0.90;99.90;;;;;;4933641;29;20241;-65
2023/11/30 07:58:48;;;;;;;44.40;15.77;;;0.90;99.90;;;;;;4949521;29;20197;-65
2023/11/30 08:01:14;;;;;;;35.70;13.37;;;1.00;99.90;;;;;;4933841;29;20397;-65
2023/11/30 08:03:40;;;;;;;39.93;14.30;;;1.00;99.90;;;;;;4934446;29;20229;-65
2023/11/30 08:06:07;;;;;;;39.57;14.83;;;1.00;99.90;;;;;;4934526;29;20657;-64
2023/11/30 08:08:32;;;;;;;37.77;14.40;;;1.00;99.90;;;;;;4934590;29;20184;-65
2023/11/30 08:10:58;;;;;;;39.30;14.30;;;1.00;99.90;;;;;;4933911;29;20210;-65
2023/11/30 08:13:24;;;;;;;38.03;14.37;;;1.00;99.90;;;;;;4934369;29;20191;-64
2023/11/30 08:15:50;;;;;;;34.13;13.13;;;1.00;99.90;;;;;;4934258;29;20569;-65
2023/11/30 08:18:18;;;;;;;36.33;13.87;;;1.00;99.90;;;;;;4934051;29;20183;-65
2023/11/30 08:20:44;;;;;;;39.33;15.10;;;1.10;99.90;;;;;;4933538;29;20196;-65
2023/11/30 08:23:09;;;;;;;35.83;14.27;;;1.10;99.90;;;;;;4934082;29;20225;-65
2023/11/30 08:25:35;;;;;;;38.23;14.23;;;1.10;99.90;;;;;;4934235;29;20652;-65
2023/11/30 08:28:00;;;;;;;38.53;15.47;;;1.10;99.90;;;;;;4934141;29;20657;-64
2023/11/30 08:30:26;;;;;;;41.03;14.70;;;1.10;99.90;;;;;;4933192;29;20278;-64
2023/11/30 08:32:52;;;;;;;38.40;14.20;;;1.10;99.90;;;;;;4933906;29;20743;-65
2023/11/30 08:35:17;;;;;;;40.87;14.33;;;1.20;99.90;;;;;;4934032;29;20191;-67
2023/11/30 08:37:43;;;;;;;37.03;14.70;;;1.20;99.90;;;;;;4948668;29;20215;-65
2023/11/30 08:40:12;;;;;;;36.63;14.87;;;1.20;99.90;;;;;;4931759;29;20581;-65
2023/11/30 08:42:38;;;;;;;34.57;14.60;;;1.20;99.90;;;;;;4932495;29;20183;-65
2023/11/30 08:45:05;;;;;;;37.93;14.90;;;1.20;99.90;;;;;;4933265;29;20171;-64
2023/11/30 08:47:30;;;;;;;36.70;15.23;;;1.30;99.90;;;;;;4933447;29;20231;-65
2023/11/30 08:49:56;;;;;;;41.50;15.60;;;1.30;99.90;;;;;;4933020;29;20187;-65
2023/11/30 08:52:23;;;;;;;38.73;15.33;;;1.30;99.90;;;;;;4933560;29;20290;-65
2023/11/30 08:54:48;;;;;;;34.90;14.57;;;1.30;99.90;;;;;;4933649;29;20182;-65
2023/11/30 08:57:14;;;;;;;37.80;15.60;;;1.30;99.90;;;;;;4933391;29;20187;-65
2023/11/30 08:59:40;;;;;;;36.67;16.10;;;1.40;99.90;;;;;;4932927;29;20183;-65
2023/11/30 09:02:06;;;;;;;41.53;16.20;;;1.40;99.90;;;;;;4933434;29;20202;-65
2023/11/30 09:04:32;;;;;;;48.10;17.97;;;1.40;99.90;;;;;;4925618;29;20705;-65
2023/11/30 09:06:58;;;;;;;45.47;17.53;;;1.40;99.90;;;;;;4933535;29;20179;-65
2023/11/30 09:09:23;;;;;;;43.83;17.70;;;1.40;99.90;;;;;;4932813;29;20184;-65
2023/11/30 09:11:49;;;;;;;43.03;16.90;;;1.50;99.90;;;;;;4933438;29;20207;-65
2023/11/30 09:14:14;;;;;;;41.17;17.67;;;1.50;99.90;;;;;;4933208;29;20191;-65
2023/11/30 09:16:40;;;;;;;49.90;19.50;;;1.50;99.90;;;;;;4933499;29;20591;-65
2023/11/30 09:19:05;;;;;;;53.37;20.83;;;1.50;99.90;;;;;;4933205;29;20257;-65
2023/11/30 09:21:32;;;;;;;50.87;19.53;;;1.50;99.90;;;;;;4931618;29;20743;-66
2023/11/30 09:23:58;;;;;;;55.10;20.33;;;1.50;99.90;;;;;;4933212;29;20241;-66
2023/11/30 09:26:24;;;;;;;51.77;19.77;;;1.60;99.90;;;;;;4933211;29;20239;-64
2023/11/30 09:28:50;;;;;;;44.20;17.50;;;1.50;99.90;;;;;;4933295;29;20171;-65
2023/11/30 09:31:16;;;;;;;51.23;19.50;;;1.50;99.90;;;;;;4932555;29;20221;-65
2023/11/30 09:33:42;;;;;;;51.03;19.57;;;1.60;99.90;;;;;;4932850;29;20656;-65
2023/11/30 09:36:08;;;;;;;47.70;19.00;;;1.60;99.90;;;;;;4932623;29;20194;-65
2023/11/30 09:38:33;;;;;;;44.57;18.50;;;1.60;99.90;;;;;;4932758;29;20187;-66
2023/11/30 09:41:08;;;;;;;39.20;17.43;;;1.70;99.90;;;;;;4931880;29;20265;-66
2023/11/30 09:43:33;;;;;;;43.50;17.67;;;1.70;99.90;;;;;;4932513;29;20199;-66
2023/11/30 09:45:59;;;;;;;37.27;15.97;;;1.80;99.90;;;;;;4932395;29;20804;-66
2023/11/30 09:48:24;;;;;;;34.87;14.30;;;1.80;99.90;;;;;;4932392;29;20194;-65
2023/11/30 09:50:50;;;;;;;33.83;15.43;;;1.80;99.90;;;;;;4931831;29;20803;-66
2023/11/30 09:53:15;;;;;;;31.83;14.27;;;1.90;99.90;;;;;;4932982;29;20195;-65
2023/11/30 09:55:42;;;;;;;30.97;14.37;;;1.90;99.90;;;;;;4933044;29;20194;-66
2023/11/30 09:58:08;;;;;;;29.27;13.97;;;1.90;99.90;;;;;;4932871;29;20239;-65
2023/11/30 10:00:34;;;;;;;34.20;15.03;;;1.90;99.90;;;;;;4932153;29;20207;-65
2023/11/30 10:03:00;;;;;;;34.77;15.40;;;1.90;99.90;;;;;;4932689;29;20214;-66
2023/11/30 10:05:27;;;;;;;29.93;13.17;;;1.90;99.90;;;;;;4932840;29;20226;-65
2023/11/30 10:07:52;;;;;;;33.03;13.43;;;2.00;99.90;;;;;;4932938;29;20230;-66
2023/11/30 10:10:18;;;;;;;33.23;14.60;;;2.00;99.90;;;;;;4934310;29;20191;-65
2023/11/30 10:12:44;;;;;;;36.53;14.30;;;2.00;99.90;;;;;;4936535;29;20257;-66
2023/11/30 10:15:09;;;;;;;34.03;14.60;;;2.00;99.90;;;;;;4936364;29;20214;-65
2023/11/30 10:17:36;;;;;;;37.33;15.30;;;1.90;99.90;;;;;;4935310;29;20184;-66
2023/11/30 10:20:04;;;;;;;39.30;15.90;;;1.90;99.90;;;;;;4935706;29;20202;-66
2023/11/30 10:22:30;;;;;;;41.40;18.63;;;1.90;99.90;;;;;;4936210;29;20303;-66
2023/11/30 10:24:55;;;;;;;45.97;18.40;;;1.80;99.90;;;;;;4936071;29;20619;-66
2023/11/30 10:27:24;;;;;;;36.40;15.90;;;1.90;99.90;;;;;;4935553;29;20243;-65
2023/11/30 10:29:51;;;;;;;31.87;14.37;;;1.90;99.90;;;;;;4935704;29;20176;-66
2023/11/30 10:32:17;;;;;;;31.90;14.63;;;1.90;99.90;;;;;;4935963;29;20211;-65
2023/11/30 10:34:47;;;;;;;34.33;16.07;;;1.90;99.90;;;;;;4936116;29;20261;-66
2023/11/30 10:37:19;;;;;;;39.20;16.73;;;2.00;99.90;;;;;;4936124;29;20238;-65
2023/11/30 10:39:52;;;;;;;37.17;15.93;;;2.00;99.90;;;;;;4934309;29;20183;-65
2023/11/30 10:42:19;;;;;;;39.67;17.60;;;2.00;99.90;;;;;;4935914;29;20275;-65
2023/11/30 10:44:50;;;;;;;39.67;16.17;;;2.00;99.90;;;;;;4936082;29;20220;-65
2023/11/30 10:47:16;;;;;;;38.47;16.03;;;2.00;99.90;;;;;;4936280;29;20600;-65
2023/11/30 10:49:42;;;;;;;38.80;16.80;;;2.00;99.90;;;;;;4935219;29;20201;-65
2023/11/30 10:52:09;;;;;;;35.93;15.73;;;2.00;99.90;;;;;;4935750;29;20199;-65
2023/11/30 10:55:05;;;;;;;41.07;16.70;;;2.10;99.90;;;;;;4936053;29;20191;-66
2023/11/30 10:57:31;;;;;;;37.37;15.37;;;2.00;99.90;;;;;;4935623;29;20266;-65
2023/11/30 10:59:58;;;;;;;36.83;14.90;;;2.10;99.90;;;;;;4935308;29;20282;-65
2023/11/30 11:02:44;;;;;;;37.03;16.07;;;2.10;99.90;;;;;;4935515;29;20207;-65
2023/11/30 11:05:14;;;;;;;34.80;14.97;;;2.10;99.90;;;;;;4935404;29;20234;-65
2023/11/30 11:07:51;;;;;;;37.20;14.67;;;2.00;99.90;;;;;;4935571;29;20187;-65
2023/11/30 11:10:46;;;;;;;30.50;13.57;;;2.00;99.90;;;;;;4934374;29;20285;-65
2023/11/30 11:13:18;;;;;;;34.53;14.53;;;2.00;99.90;;;;;;4935225;29;20219;-65
2023/11/30 11:15:43;;;;;;;32.73;15.13;;;2.00;99.90;;;;;;4950171;29;20548;-65
2023/11/30 11:18:15;;;;;;;31.43;14.20;;;2.00;99.90;;;;;;4935195;29;20183;-65
2023/11/30 11:20:43;;;;;;;31.00;12.70;;;2.00;99.90;;;;;;4934252;29;20218;-66
2023/11/30 11:23:09;;;;;;;34.80;15.00;;;2.10;99.90;;;;;;4933451;29;20210;-65
2023/11/30 11:25:43;;;;;;;34.40;13.07;;;2.10;99.90;;;;;;4934714;29;20179;-65
2023/11/30 11:28:09;;;;;;;29.13;12.70;;;2.10;99.90;;;;;;4934964;29;20326;-65
2023/11/30 11:30:43;;;;;;;28.13;12.13;;;2.10;99.90;;;;;;4934702;29;20207;-65
2023/11/30 11:33:08;;;;;;;32.57;13.70;;;2.10;99.90;;;;;;4934862;29;20262;-65
2023/11/30 11:35:34;;;;;;;31.17;13.27;;;2.20;99.90;;;;;;4949910;29;20276;-65
2023/11/30 11:38:00;;;;;;;31.83;14.73;;;2.20;99.90;;;;;;4935009;29;20270;-65
2023/11/30 11:40:26;;;;;;;33.50;13.93;;;2.20;99.90;;;;;;4934437;29;20518;-65
2023/11/30 11:42:52;;;;;;;33.23;14.43;;;2.20;99.90;;;;;;4935189;29;20236;-65
2023/11/30 11:45:17;;;;;;;37.63;14.20;;;2.10;99.90;;;;;;4934971;29;20740;-65
2023/11/30 11:47:43;;;;;;;30.77;13.80;;;2.10;99.90;;;;;;4935012;29;20176;-65
2023/11/30 11:50:12;;;;;;;33.20;13.63;;;2.10;99.90;;;;;;4934152;29;20183;-65
2023/11/30 11:52:38;;;;;;;31.07;13.53;;;2.20;99.90;;;;;;4935314;29;20583;-65
2023/11/30 11:55:09;;;;;;;34.27;14.17;;;2.10;99.90;;;;;;4934858;29;20262;-65
2023/11/30 11:57:37;;;;;;;30.03;13.47;;;2.10;99.90;;;;;;4934940;29;20187;-65
2023/11/30 12:00:17;;;;;;;33.97;14.43;;;2.10;99.90;;;;;;4933885;29;20179;-64
2023/11/30 12:02:44;;;;;;;30.23;13.80;;;2.10;99.90;;;;;;4927992;29;20183;-63
2023/11/30 12:05:14;;;;;;;37.47;14.50;;;2.20;99.90;;;;;;4934163;29;20175;-63
2023/11/30 12:07:57;;;;;;;34.77;14.03;;;2.20;99.90;;;;;;4934791;29;20225;-63
2023/11/30 12:10:27;;;;;;;32.83;14.80;;;2.10;99.90;;;;;;4933668;29;20235;-64
2023/11/30 12:12:53;;;;;;;32.33;13.90;;;2.20;99.90;;;;;;4934363;29;20175;-63
2023/11/30 12:15:18;;;;;;;30.10;13.20;;;2.20;99.90;;;;;;4948980;29;20198;-64
2023/11/30 12:17:44;;;;;;;30.73;11.33;;;2.10;99.90;;;;;;4934335;29;20594;-64
2023/11/30 12:20:10;;;;;;;28.90;11.97;;;2.10;99.90;;;;;;4933329;29;20270;-64
2023/11/30 12:22:35;;;;;;;27.60;11.40;;;2.10;99.90;;;;;;4934460;29;20191;-64
2023/11/30 12:25:02;;;;;;;26.33;11.40;;;2.10;99.90;;;;;;4948924;29;20739;-64
2023/11/30 12:27:28;;;;;;;26.90;11.80;;;2.10;99.90;;;;;;4934225;29;20242;-62
2023/11/30 12:29:54;;;;;;;31.03;12.73;;;2.20;99.90;;;;;;4933881;29;20203;-64
2023/11/30 12:32:20;;;;;;;29.93;12.30;;;2.10;99.90;;;;;;4932882;29;20258;-64
2023/11/30 12:34:45;;;;;;;30.20;12.97;;;2.10;99.90;;;;;;4934202;29;20187;-64